Terminal Aerodrome Forecast
Issued by NWS

Home | Current Version | Previous Version | Text Only | Print | Product List | Glossary On
Versions: 1 2 3 4 5 6 7 8 9 10 11 12 13 14 15 16 17 18
000
FTAK31 PANC 210122 AAA
TAFACD
TAF AMD
PACD 210122Z 2101/2124 34018G28KT 6SM -SN SCT025 OVC040
      TEMPO 2101/2104 1 1/2SM -SN BLSN BKN022
     FM211600 34012KT P6SM SCT025 BKN040=

USA.gov is the U.S. government's official web portal to all federal, state and local government web resources and services.